createdAt,value
2022-09-09T00:00:56.265Z,9.27
2022-09-09T00:03:29.561Z,8.87
2022-09-09T00:06:10.409Z,8.52
2022-09-09T00:08:53.703Z,8.65
2022-09-09T00:11:31.523Z,8.70
2022-09-09T00:14:09.369Z,8.77
2022-09-09T00:16:45.604Z,8.63
2022-09-09T00:19:24.486Z,7.38
2022-09-09T00:22:10.091Z,8.52
2022-09-09T00:24:45.541Z,8.23
2022-09-09T00:27:26.485Z,7.35
2022-09-09T00:30:02.518Z,8.37
2022-09-09T00:32:36.757Z,7.20
2022-09-09T00:35:19.122Z,7.95
2022-09-09T00:37:55.207Z,8.65
2022-09-09T00:40:35.773Z,8.35
2022-09-09T00:43:27.126Z,6.97
2022-09-09T00:46:28.270Z,7.22
2022-09-09T00:49:07.661Z,8.30
2022-09-09T00:51:51.308Z,7.90
2022-09-09T00:54:35.690Z,7.10
2022-09-09T00:57:19.412Z,7.90
2022-09-09T00:59:52.764Z,7.18
2022-09-09T01:02:34.295Z,8.18
2022-09-09T01:05:14.679Z,7.75
2022-09-09T01:07:53.036Z,7.57
2022-09-09T01:10:38.835Z,8.00
2022-09-09T01:13:21.466Z,6.45
2022-09-09T01:15:56.318Z,7.28
2022-09-09T01:18:36.692Z,7.15
2022-09-09T01:21:22.630Z,7.43
2022-09-09T01:24:15.469Z,7.23
2022-09-09T01:27:02.071Z,7.88
2022-09-09T01:29:31.946Z,6.85
2022-09-09T01:32:04.311Z,7.45
2022-09-09T01:34:42.518Z,7.32
2022-09-09T01:37:15.158Z,6.97
2022-09-09T01:39:46.916Z,6.88
2022-09-09T01:42:20.428Z,5.38
2022-09-09T01:44:49.429Z,6.00
2022-09-09T01:47:18.875Z,5.72
2022-09-09T01:50:17.868Z,5.93
2022-09-09T01:52:52.813Z,7.13
2022-09-09T01:55:33.227Z,5.35
2022-09-09T01:58:25.373Z,5.80
2022-09-09T02:01:08.166Z,6.07
2022-09-09T02:03:38.406Z,5.20
2022-09-09T02:06:28.344Z,6.32
2022-09-09T02:09:07.301Z,5.50
2022-09-09T02:11:38.062Z,6.65
2022-09-09T02:14:24.614Z,6.22
2022-09-09T02:17:00.235Z,6.43
2022-09-09T02:19:43.767Z,6.22
2022-09-09T02:22:28.419Z,6.20
2022-09-09T02:25:00.975Z,6.68
2022-09-09T02:27:32.669Z,7.05
2022-09-09T02:30:05.902Z,4.63
2022-09-09T02:32:45.509Z,5.22
2022-09-09T02:35:19.654Z,6.50
2022-09-09T02:37:48.624Z,5.60
2022-09-09T02:40:18.948Z,5.40
2022-09-09T02:42:53.005Z,6.03
2022-09-09T02:45:33.041Z,5.93
2022-09-09T02:48:13.734Z,5.93
2022-09-09T02:51:01.716Z,5.07
2022-09-09T02:53:43.718Z,5.25
2022-09-09T02:56:19.702Z,4.97
2022-09-09T02:58:52.945Z,4.70
2022-09-09T03:01:23.542Z,4.95
2022-09-09T03:03:52.247Z,7.43
2022-09-09T03:06:21.028Z,6.55
2022-09-09T03:08:55.721Z,6.17
2022-09-09T03:11:29.187Z,6.35
2022-09-09T03:13:58.193Z,6.43
2022-09-09T03:16:30.053Z,5.35
2022-09-09T03:18:59.322Z,6.18
2022-09-09T03:21:28.152Z,5.37
2022-09-09T03:23:58.372Z,6.40
2022-09-09T03:26:27.196Z,6.50
2022-09-09T03:28:55.901Z,5.55
2022-09-09T03:31:26.649Z,16.75
2022-09-09T03:33:56.771Z,6.67
2022-09-09T03:36:27.338Z,6.72
2022-09-09T03:38:56.656Z,7.07
2022-09-09T03:41:28.202Z,7.13
2022-09-09T03:43:57.064Z,6.72
2022-09-09T03:46:29.695Z,7.27
2022-09-09T03:48:59.833Z,7.60
2022-09-09T03:51:29.040Z,7.13
2022-09-09T03:53:59.168Z,7.03
2022-09-09T03:56:29.406Z,8.18
2022-09-09T03:58:58.989Z,7.17
2022-09-09T04:01:30.323Z,7.53
2022-09-09T04:04:00.551Z,6.50
2022-09-09T04:06:29.831Z,6.60
2022-09-09T04:08:58.865Z,6.93
2022-09-09T04:11:28.900Z,6.60
2022-09-09T04:14:00.196Z,6.32
2022-09-09T04:16:30.401Z,6.50
2022-09-09T04:19:00.774Z,6.97
2022-09-09T04:21:29.626Z,7.00
2022-09-09T04:23:58.873Z,5.73
2022-09-09T04:26:28.855Z,5.65
2022-09-09T04:28:57.895Z,4.85
2022-09-09T04:31:26.908Z,6.20
2022-09-09T04:34:03.316Z,6.22
2022-09-09T04:36:32.830Z,5.70
2022-09-09T04:39:04.812Z,5.88
2022-09-09T04:41:36.014Z,5.53
2022-09-09T04:44:04.855Z,7.15
2022-09-09T04:46:35.397Z,6.50
2022-09-09T04:49:06.391Z,5.57
2022-09-09T04:51:36.184Z,5.28
2022-09-09T04:54:06.130Z,5.78
2022-09-09T04:56:35.202Z,5.47
2022-09-09T04:59:04.375Z,6.13
2022-09-09T05:01:40.263Z,6.03
2022-09-09T05:04:10.732Z,4.28
2022-09-09T05:06:39.448Z,4.82
2022-09-09T05:09:08.186Z,5.22
2022-09-09T05:11:37.945Z,20.08
2022-09-09T05:14:27.675Z,7.17
2022-09-09T05:16:57.263Z,6.28
2022-09-09T05:19:27.902Z,5.85
2022-09-09T05:21:57.018Z,5.40
2022-09-09T05:24:34.519Z,5.43
2022-09-09T05:27:06.396Z,4.80
2022-09-09T05:29:35.801Z,5.70
2022-09-09T05:32:06.975Z,5.68
2022-09-09T05:34:40.442Z,5.88
2022-09-09T05:37:10.089Z,5.25
2022-09-09T05:39:39.860Z,3.50
2022-09-09T05:42:08.900Z,4.55
2022-09-09T05:44:38.321Z,5.15
2022-09-09T05:47:07.459Z,5.78
2022-09-09T05:49:38.160Z,4.90
2022-09-09T05:52:07.215Z,4.53
2022-09-09T05:54:38.614Z,4.70
2022-09-09T05:57:07.376Z,4.10
2022-09-09T05:59:36.136Z,4.35
2022-09-09T06:02:05.185Z,4.18
2022-09-09T06:04:40.236Z,3.07
2022-09-09T06:07:09.662Z,3.60
2022-09-09T06:09:38.377Z,2.88
2022-09-09T06:12:10.450Z,2.75
2022-09-09T06:14:44.405Z,2.40
2022-09-09T06:17:15.201Z,1.80
2022-09-09T06:19:45.251Z,2.13
2022-09-09T06:22:14.381Z,1.70
2022-09-09T06:24:44.037Z,2.10
2022-09-09T06:27:14.719Z,2.13
2022-09-09T06:29:44.215Z,1.67
2022-09-09T06:32:12.957Z,1.77
2022-09-09T06:34:42.823Z,1.58
2022-09-09T06:37:14.023Z,1.63
2022-09-09T06:39:49.524Z,1.40
2022-09-09T06:42:18.862Z,1.70
2022-09-09T06:45:19.999Z,2.20
2022-09-09T06:47:58.225Z,1.70
2022-09-09T06:50:26.899Z,1.90
2022-09-09T06:52:57.176Z,2.05
2022-09-09T06:55:25.966Z,1.90
2022-09-09T06:57:54.962Z,2.10
2022-09-09T07:00:25.675Z,1.92
2022-09-09T07:02:54.559Z,1.25
2022-09-09T07:05:23.637Z,1.75
2022-09-09T07:07:54.147Z,1.80
2022-09-09T07:10:24.523Z,1.50
2022-09-09T07:12:54.400Z,1.25
2022-09-09T07:15:25.945Z,1.48
2022-09-09T07:17:55.820Z,1.25
2022-09-09T07:20:24.787Z,1.93
2022-09-09T07:22:59.497Z,1.40
2022-09-09T07:25:31.198Z,1.00
2022-09-09T07:28:00.339Z,1.30
2022-09-09T07:30:30.055Z,0.65
2022-09-09T07:33:00.710Z,1.40
2022-09-09T07:35:30.032Z,0.70
2022-09-09T07:37:59.380Z,0.70
2022-09-09T07:40:31.322Z,0.40
2022-09-09T07:43:00.699Z,0.40
2022-09-09T07:45:30.144Z,0.50
2022-09-09T07:47:58.925Z,0.75
2022-09-09T07:50:27.939Z,0.63
2022-09-09T07:52:57.701Z,0.60
2022-09-09T07:55:27.532Z,0.57
2022-09-09T07:57:58.545Z,0.50
2022-09-09T08:00:28.214Z,0.52
2022-09-09T08:02:59.421Z,0.60
2022-09-09T08:05:28.357Z,1.25
2022-09-09T08:07:57.423Z,0.90
2022-09-09T08:10:26.142Z,0.60
2022-09-09T08:13:16.927Z,0.70
2022-09-09T08:15:46.512Z,0.73
2022-09-09T08:18:16.139Z,0.80
2022-09-09T08:20:46.625Z,0.63
2022-09-09T08:23:15.367Z,0.60
2022-09-09T08:25:44.012Z,0.60
2022-09-09T08:28:14.132Z,0.50
2022-09-09T08:30:43.272Z,0.40
2022-09-09T08:33:12.253Z,0.70
2022-09-09T08:35:41.082Z,0.70
2022-09-09T08:38:11.049Z,0.55
2022-09-09T08:40:52.223Z,0.40
2022-09-09T08:43:26.016Z,0.80
2022-09-09T08:46:05.289Z,0.60
2022-09-09T08:48:53.191Z,0.60
2022-09-09T08:51:22.802Z,0.80
2022-09-09T08:53:59.569Z,0.70
2022-09-09T08:56:33.613Z,0.60
2022-09-09T08:59:06.418Z,0.50
2022-09-09T09:01:53.322Z,0.80
2022-09-09T09:04:53.140Z,0.40
2022-09-09T09:07:41.567Z,0.70
2022-09-09T09:10:40.417Z,0.40
2022-09-09T09:13:18.094Z,0.70
2022-09-09T09:15:57.917Z,0.70
2022-09-09T09:18:26.868Z,2.70
2022-09-09T09:21:07.742Z,0.55
2022-09-09T09:23:47.667Z,0.70
2022-09-09T09:26:16.854Z,1.00
2022-09-09T09:28:45.664Z,0.80
2022-09-09T09:31:23.001Z,0.80
2022-09-09T09:33:54.426Z,0.70
2022-09-09T09:36:37.244Z,0.65
2022-09-09T09:42:05.116Z,0.60
2022-09-09T09:44:38.331Z,0.90
2022-09-09T09:47:19.720Z,0.60
2022-09-09T09:50:00.781Z,0.52
2022-09-09T09:52:36.803Z,0.40
2022-09-09T09:55:16.055Z,0.60
2022-09-09T09:57:47.578Z,0.50
2022-09-09T10:00:19.921Z,0.50
2022-09-09T10:02:57.678Z,0.95
2022-09-09T10:05:36.034Z,1.05
2022-09-09T10:08:15.781Z,0.63
2022-09-09T10:11:12.837Z,0.90
2022-09-09T10:13:51.514Z,0.77
2022-09-09T10:16:40.702Z,0.60
2022-09-09T10:19:17.449Z,0.80
2022-09-09T10:22:27.942Z,0.70
2022-09-09T10:25:29.754Z,0.60
2022-09-09T10:28:29.189Z,1.00
2022-09-09T10:31:14.798Z,0.88
2022-09-09T10:33:53.407Z,0.88
2022-09-09T10:36:27.087Z,1.00
2022-09-09T10:39:04.073Z,0.98
2022-09-09T10:41:57.079Z,0.80
2022-09-09T10:44:45.031Z,0.85
2022-09-09T10:47:54.144Z,0.80
2022-09-09T10:51:01.045Z,0.90
2022-09-09T10:53:55.361Z,0.73
2022-09-09T10:56:26.552Z,0.60
2022-09-09T10:59:02.095Z,0.90
2022-09-09T11:01:41.669Z,0.82
2022-09-09T11:04:21.476Z,0.90
2022-09-09T11:06:56.359Z,0.65
2022-09-09T11:09:33.384Z,0.90
2022-09-09T11:12:03.866Z,0.63
2022-09-09T11:14:41.469Z,0.70
2022-09-09T11:17:17.962Z,1.00
2022-09-09T11:19:47.555Z,1.10
2022-09-09T11:22:26.400Z,1.20
2022-09-09T11:25:08.395Z,1.20
2022-09-09T11:27:51.882Z,1.00
2022-09-09T11:30:53.733Z,0.83
2022-09-09T11:34:07.161Z,1.00
2022-09-09T11:36:58.302Z,0.85
2022-09-09T11:39:55.988Z,1.13
2022-09-09T11:42:27.557Z,0.80
2022-09-09T11:44:57.775Z,1.07
2022-09-09T11:47:31.493Z,1.08
2022-09-09T11:50:29.140Z,1.00
2022-09-09T11:53:25.703Z,1.08
2022-09-09T11:56:12.203Z,0.90
2022-09-09T11:58:47.991Z,1.83
2022-09-09T12:01:38.282Z,1.20
2022-09-09T12:04:41.768Z,0.98
2022-09-09T12:07:34.861Z,1.10
2022-09-09T12:10:21.516Z,0.98
2022-09-09T12:12:50.491Z,1.27
2022-09-09T12:15:30.018Z,2.03
2022-09-09T12:18:03.810Z,1.40
2022-09-09T12:20:39.958Z,1.30
2022-09-09T12:23:32.460Z,2.80
2022-09-09T12:26:34.077Z,1.40
2022-09-09T12:29:19.396Z,1.73
2022-09-09T12:32:01.714Z,2.03
2022-09-09T12:34:42.147Z,1.77
2022-09-09T12:37:29.253Z,1.85
2022-09-09T12:40:00.408Z,1.80
2022-09-09T12:42:30.962Z,1.92
2022-09-09T12:45:01.861Z,1.58
2022-09-09T12:47:42.892Z,1.77
2022-09-09T12:50:22.202Z,0.90
2022-09-09T12:52:55.099Z,0.90
2022-09-09T12:55:27.742Z,1.33
2022-09-09T12:57:56.660Z,1.30
2022-09-09T13:00:27.869Z,0.90
2022-09-09T13:03:01.957Z,0.80
2022-09-09T13:05:37.947Z,1.00
2022-09-09T13:08:11.239Z,0.80
2022-09-09T13:10:58.749Z,0.88
2022-09-09T13:13:33.900Z,1.20
2022-09-09T13:16:05.736Z,1.15
2022-09-09T13:18:39.267Z,0.90
2022-09-09T13:21:08.578Z,1.30
2022-09-09T13:23:40.173Z,1.20
2022-09-09T13:26:23.857Z,1.17
2022-09-09T13:28:53.991Z,1.25
2022-09-09T13:31:25.808Z,1.20
2022-09-09T13:33:56.059Z,0.90
2022-09-09T13:36:33.630Z,1.25
2022-09-09T13:39:05.666Z,0.90
2022-09-09T13:41:38.075Z,1.48
2022-09-09T13:44:08.427Z,1.20
2022-09-09T13:46:41.370Z,1.08
2022-09-09T13:49:24.862Z,1.17
2022-09-09T13:52:04.793Z,1.20
2022-09-09T13:54:33.562Z,1.30
2022-09-09T13:57:02.653Z,1.20
2022-09-09T13:59:48.024Z,1.55
2022-09-09T14:02:20.895Z,1.42
2022-09-09T14:04:55.955Z,1.10
2022-09-09T14:07:24.839Z,1.20
2022-09-09T14:09:53.623Z,1.50
2022-09-09T14:12:22.551Z,1.45
2022-09-09T14:14:51.413Z,1.33
2022-09-09T14:17:20.060Z,1.60
2022-09-09T14:19:50.134Z,1.50
2022-09-09T14:22:19.125Z,1.20
2022-09-09T14:24:47.796Z,1.23
2022-09-09T14:27:16.857Z,1.10
2022-09-09T14:29:46.076Z,1.75
2022-09-09T14:32:15.131Z,1.40
2022-09-09T14:34:43.898Z,0.90
2022-09-09T14:37:14.004Z,8.77
2022-09-09T14:39:45.127Z,2.95
2022-09-09T14:42:14.032Z,1.52
2022-09-09T14:44:42.725Z,1.27
2022-09-09T14:47:11.649Z,1.20
2022-09-09T14:49:42.697Z,1.48
2022-09-09T14:52:15.394Z,1.35
2022-09-09T14:54:44.276Z,1.40
2022-09-09T14:57:13.070Z,1.50
2022-09-09T14:59:41.754Z,1.40
2022-09-09T15:02:11.496Z,1.33
2022-09-09T15:04:40.493Z,1.38
2022-09-09T15:07:09.070Z,1.35
2022-09-09T15:09:39.326Z,1.65
2022-09-09T15:12:08.888Z,1.17
2022-09-09T15:14:37.949Z,1.38
2022-09-09T15:17:06.681Z,1.13
2022-09-09T15:19:35.471Z,1.20
2022-09-09T15:22:06.109Z,1.25
2022-09-09T15:24:35.617Z,1.57
2022-09-09T15:27:06.061Z,1.50
2022-09-09T15:29:34.739Z,1.58
2022-09-09T15:32:03.932Z,1.85
2022-09-09T15:34:32.747Z,1.60
2022-09-09T15:37:01.792Z,1.80
2022-09-09T15:39:31.155Z,2.20
2022-09-09T15:42:02.872Z,1.60
2022-09-09T15:44:41.116Z,1.85
2022-09-09T15:47:10.423Z,2.05
2022-09-09T15:49:39.743Z,1.73
2022-09-09T15:52:08.716Z,2.13
2022-09-09T15:54:43.039Z,2.15
2022-09-09T15:57:17.172Z,2.38
2022-09-09T15:59:47.230Z,2.60
2022-09-09T16:02:16.358Z,2.70
2022-09-09T16:04:47.083Z,2.70
2022-09-09T16:07:15.941Z,2.85
2022-09-09T16:09:44.716Z,3.10
2022-09-09T16:12:14.225Z,3.45
2022-09-09T16:14:43.189Z,2.90
2022-09-09T16:17:13.937Z,2.97
2022-09-09T16:19:44.043Z,3.13
2022-09-09T16:22:13.415Z,3.13
2022-09-09T16:24:42.476Z,3.65
2022-09-09T16:27:12.538Z,4.00
2022-09-09T16:29:41.501Z,3.00
2022-09-09T16:32:11.436Z,2.50
2022-09-09T16:34:45.044Z,2.45
2022-09-09T16:37:14.181Z,2.22
2022-09-09T16:39:46.543Z,2.80
2022-09-09T16:42:18.293Z,2.60
2022-09-09T16:44:47.489Z,3.55
2022-09-09T16:47:16.607Z,3.58
2022-09-09T16:49:46.989Z,2.80
2022-09-09T16:52:20.450Z,4.23
2022-09-09T16:54:50.911Z,4.18
2022-09-09T16:57:20.058Z,3.72
2022-09-09T16:59:50.398Z,3.92
2022-09-09T17:02:20.474Z,4.20
2022-09-09T17:04:51.292Z,4.40
2022-09-09T17:07:20.825Z,5.30
2022-09-09T17:09:50.018Z,4.32
2022-09-09T17:12:19.282Z,4.50
2022-09-09T17:14:48.587Z,5.00
2022-09-09T17:17:31.032Z,5.27
2022-09-09T17:20:03.082Z,6.55
2022-09-09T17:22:32.732Z,5.93
2022-09-09T17:25:02.067Z,5.90
2022-09-09T17:27:33.398Z,5.60
2022-09-09T17:30:03.858Z,6.40
2022-09-09T17:32:39.692Z,5.00
2022-09-09T17:35:11.735Z,4.93
2022-09-09T17:37:41.250Z,5.68
2022-09-09T17:40:11.417Z,6.10
2022-09-09T17:42:41.744Z,5.67
2022-09-09T17:45:12.513Z,5.70
2022-09-09T17:47:45.836Z,5.75
2022-09-09T17:50:18.443Z,6.35
2022-09-09T17:52:47.714Z,5.78
2022-09-09T17:55:18.448Z,5.00
2022-09-09T17:57:48.154Z,5.25
2022-09-09T18:00:20.953Z,5.28
2022-09-09T18:02:50.687Z,5.30
2022-09-09T18:05:21.570Z,5.32
2022-09-09T18:07:51.271Z,4.80
2022-09-09T18:10:23.046Z,5.35
2022-09-09T18:12:53.027Z,5.72
2022-09-09T18:15:39.255Z,5.32
2022-09-09T18:18:12.249Z,5.20
2022-09-09T18:20:43.171Z,5.30
2022-09-09T18:23:15.570Z,5.78
2022-09-09T18:25:44.966Z,5.40
2022-09-09T18:28:14.467Z,5.97
2022-09-09T18:30:43.686Z,5.30
2022-09-09T18:33:13.054Z,4.73
2022-09-09T18:35:43.817Z,5.55
2022-09-09T18:38:13.305Z,4.97
2022-09-09T18:40:42.665Z,5.78
2022-09-09T18:43:13.078Z,5.38
2022-09-09T18:45:42.412Z,4.90
2022-09-09T18:48:11.738Z,4.90
2022-09-09T18:50:42.455Z,5.93
2022-09-09T18:53:11.884Z,6.10
2022-09-09T18:55:41.284Z,6.45
2022-09-09T18:58:10.674Z,6.40
2022-09-09T19:00:40.071Z,5.95
2022-09-09T19:03:09.250Z,5.82
2022-09-09T19:05:38.665Z,6.20
2022-09-09T19:08:09.514Z,5.15
2022-09-09T19:10:41.995Z,5.77
2022-09-09T19:13:11.515Z,5.60
2022-09-09T19:15:41.159Z,4.95
2022-09-09T19:18:10.614Z,4.88
2022-09-09T19:20:40.204Z,4.90
2022-09-09T19:23:11.046Z,4.73
2022-09-09T19:25:40.515Z,4.68
2022-09-09T19:28:09.862Z,4.57
2022-09-09T19:30:39.420Z,4.53
2022-09-09T19:33:08.911Z,4.60
2022-09-09T19:35:38.233Z,4.47
2022-09-09T19:38:08.000Z,4.05
2022-09-09T19:40:39.019Z,3.70
2022-09-09T19:43:11.176Z,4.68
2022-09-09T19:45:40.570Z,4.47
2022-09-09T19:48:09.854Z,3.50
2022-09-09T19:50:39.065Z,3.40
2022-09-09T19:53:08.413Z,3.35
2022-09-09T19:55:42.613Z,4.13
2022-09-09T19:58:11.842Z,3.45
2022-09-09T20:00:40.993Z,3.80
2022-09-09T20:03:19.237Z,3.03
2022-09-09T20:05:50.701Z,2.83
2022-09-09T20:08:19.745Z,3.83
2022-09-09T20:10:57.318Z,3.65
2022-09-09T20:13:26.739Z,3.70
2022-09-09T20:16:01.682Z,3.30
2022-09-09T20:18:33.666Z,2.92
2022-09-09T20:21:05.670Z,3.05
2022-09-09T20:23:37.494Z,3.70
2022-09-09T20:26:11.164Z,3.43
2022-09-09T20:28:42.519Z,4.07
2022-09-09T20:31:15.156Z,3.60
2022-09-09T20:33:45.764Z,3.40
2022-09-09T20:36:18.642Z,3.90
2022-09-09T20:38:51.652Z,3.93
2022-09-09T20:41:24.156Z,3.47
2022-09-09T20:43:56.118Z,3.97
2022-09-09T20:46:28.418Z,4.63
2022-09-09T20:49:02.610Z,4.55
2022-09-09T20:51:34.794Z,4.00
2022-09-09T20:54:07.079Z,4.63
2022-09-09T20:56:41.276Z,4.10
2022-09-09T20:59:13.542Z,5.07
2022-09-09T21:01:42.596Z,4.57
2022-09-09T21:04:11.259Z,4.30
2022-09-09T21:06:40.097Z,4.72
2022-09-09T21:09:08.899Z,4.07
2022-09-09T21:11:39.141Z,3.97
2022-09-09T21:14:08.113Z,3.55
2022-09-09T21:16:36.740Z,3.63
2022-09-09T21:19:05.560Z,3.88
2022-09-09T21:21:34.858Z,3.70
2022-09-09T21:24:04.238Z,4.28
2022-09-09T21:26:33.306Z,4.00
2022-09-09T21:29:03.317Z,4.90
2022-09-09T21:31:32.493Z,4.00
2022-09-09T21:34:01.462Z,4.72
2022-09-09T21:36:30.399Z,4.88
2022-09-09T21:38:59.479Z,5.38
2022-09-09T21:41:28.593Z,4.60
2022-09-09T21:43:57.714Z,5.15
2022-09-09T21:46:28.259Z,5.45
2022-09-09T21:48:57.559Z,5.35
2022-09-09T21:51:26.803Z,4.97
2022-09-09T21:53:57.608Z,5.93
2022-09-09T21:56:26.908Z,5.85
2022-09-09T21:59:04.202Z,5.60
2022-09-09T22:01:34.422Z,6.10
2022-09-09T22:04:03.994Z,5.38
2022-09-09T22:06:32.807Z,6.03
2022-09-09T22:09:03.571Z,5.85
2022-09-09T22:11:32.445Z,6.20
2022-09-09T22:14:02.818Z,6.25
2022-09-09T22:16:31.854Z,5.95
2022-09-09T22:19:03.087Z,6.20
2022-09-09T22:21:34.193Z,6.63
2022-09-09T22:24:06.282Z,5.93
2022-09-09T22:26:38.220Z,6.25
2022-09-09T22:29:09.160Z,6.15
2022-09-09T22:31:38.622Z,6.13
2022-09-09T22:34:08.718Z,6.45
2022-09-09T22:36:37.320Z,6.40
2022-09-09T22:39:07.096Z,6.78
2022-09-09T22:41:35.860Z,7.07
2022-09-09T22:44:04.883Z,6.57
2022-09-09T22:46:33.547Z,6.95
2022-09-09T22:49:03.801Z,6.88
2022-09-09T22:51:34.844Z,7.35
2022-09-09T22:54:03.757Z,7.57
2022-09-09T22:56:32.418Z,6.93
2022-09-09T22:59:01.685Z,7.50
2022-09-09T23:01:31.042Z,6.88
2022-09-09T23:04:01.760Z,6.70
2022-09-09T23:06:31.819Z,5.85
2022-09-09T23:09:04.582Z,6.60
2022-09-09T23:11:37.076Z,6.75
2022-09-09T23:14:09.791Z,6.75
2022-09-09T23:16:41.135Z,6.45
2022-09-09T23:19:13.060Z,6.53
2022-09-09T23:21:42.039Z,6.50
2022-09-09T23:24:14.781Z,5.15
2022-09-09T23:26:44.786Z,5.40
2022-09-09T23:29:15.315Z,5.72
2022-09-09T23:31:47.070Z,6.35
2022-09-09T23:34:16.647Z,5.73
2022-09-09T23:36:45.395Z,5.18
2022-09-09T23:39:15.566Z,4.68
2022-09-09T23:41:44.921Z,4.78
2022-09-09T23:44:13.793Z,4.43
2022-09-09T23:46:42.568Z,4.63
2022-09-09T23:49:11.848Z,4.50
2022-09-09T23:51:41.138Z,3.92
2022-09-09T23:54:11.156Z,4.40
2022-09-09T23:56:42.576Z,5.35
2022-09-09T23:59:11.770Z,5.13
